createdAt,value
2023-02-15T00:01:09.277Z,3.14
2023-02-15T00:03:38.354Z,3.14
2023-02-15T00:06:07.867Z,2.92
2023-02-15T00:08:36.825Z,3.14
2023-02-15T00:11:07.584Z,3.05
2023-02-15T00:13:37.229Z,3.25
2023-02-15T00:16:09.300Z,3.28
2023-02-15T00:18:39.266Z,3.14
2023-02-15T00:21:10.293Z,3.28
2023-02-15T00:23:39.904Z,3.23
2023-02-15T00:26:10.629Z,3.30
2023-02-15T00:28:40.293Z,2.52
2023-02-15T00:31:12.441Z,3.29
2023-02-15T00:33:42.250Z,3.21
2023-02-15T00:36:12.668Z,3.22
2023-02-15T00:38:41.959Z,3.19
2023-02-15T00:41:11.513Z,3.15
2023-02-15T00:43:40.539Z,2.85
2023-02-15T00:46:11.461Z,3.03
2023-02-15T00:48:42.105Z,3.02
2023-02-15T00:51:11.214Z,3.14
2023-02-15T00:53:41.122Z,3.33
2023-02-15T00:56:10.372Z,2.99
2023-02-15T00:58:39.890Z,3.04
2023-02-15T01:01:14.870Z,2.82
2023-02-15T01:03:44.322Z,2.83
2023-02-15T01:06:13.748Z,1.35
2023-02-15T01:08:43.069Z,2.93
2023-02-15T01:11:14.794Z,2.97
2023-02-15T01:13:44.183Z,1.22
2023-02-15T01:16:14.544Z,0.96
2023-02-15T01:18:45.597Z,1.00
2023-02-15T01:21:16.483Z,1.05
2023-02-15T01:23:46.722Z,0.97
2023-02-15T01:26:16.469Z,2.86
2023-02-15T01:28:47.374Z,3.18
2023-02-15T01:31:22.047Z,3.34
2023-02-15T01:33:52.095Z,3.26
2023-02-15T01:36:21.402Z,3.55
2023-02-15T01:38:51.538Z,2.89
2023-02-15T01:41:24.993Z,3.52
2023-02-15T01:43:56.741Z,3.07
2023-02-15T01:46:33.257Z,3.02
2023-02-15T01:49:09.092Z,3.07
2023-02-15T01:51:43.408Z,2.90
2023-02-15T01:54:21.076Z,3.07
2023-02-15T01:56:50.892Z,3.31
2023-02-15T01:59:24.510Z,3.07
2023-02-15T02:02:00.618Z,2.91
2023-02-15T02:04:35.163Z,3.18
2023-02-15T02:07:06.537Z,3.03
2023-02-15T02:09:36.229Z,2.77
2023-02-15T02:12:05.739Z,2.79
2023-02-15T02:14:35.112Z,2.73
2023-02-15T02:17:14.520Z,1.31
2023-02-15T02:20:06.056Z,1.01
2023-02-15T02:23:07.137Z,0.52
2023-02-15T02:26:17.607Z,0.89
2023-02-15T02:29:20.194Z,2.05
2023-02-15T02:32:24.964Z,2.49
2023-02-15T02:35:01.342Z,2.75
2023-02-15T02:37:39.782Z,2.47
2023-02-15T02:40:16.342Z,2.67
2023-02-15T02:42:51.283Z,2.14
2023-02-15T02:45:27.719Z,2.55
2023-02-15T02:48:03.208Z,2.64
2023-02-15T02:50:33.632Z,2.96
2023-02-15T02:53:02.996Z,2.80
2023-02-15T02:55:37.108Z,2.90
2023-02-15T02:58:12.273Z,2.92
2023-02-15T03:00:46.717Z,3.07
2023-02-15T03:03:23.540Z,2.68
2023-02-15T03:05:59.369Z,2.60
2023-02-15T03:08:34.366Z,2.74
2023-02-15T03:11:07.483Z,2.71
2023-02-15T03:13:37.876Z,2.88
2023-02-15T03:16:29.892Z,3.13
2023-02-15T03:19:03.247Z,2.67
2023-02-15T03:21:41.325Z,2.62
2023-02-15T03:24:16.376Z,2.62
2023-02-15T03:26:49.930Z,2.95
2023-02-15T03:29:20.986Z,2.64
2023-02-15T03:31:58.772Z,3.03
2023-02-15T03:34:28.625Z,2.86
2023-02-15T03:37:08.127Z,3.36
2023-02-15T03:39:45.412Z,2.85
2023-02-15T03:42:19.864Z,2.79
2023-02-15T03:44:57.074Z,3.13
2023-02-15T03:47:31.663Z,2.99
2023-02-15T03:50:04.937Z,2.92
2023-02-15T03:52:36.429Z,2.85
2023-02-15T03:55:05.908Z,2.74
2023-02-15T03:57:56.442Z,2.92
2023-02-15T04:00:44.944Z,2.77
2023-02-15T04:03:25.234Z,2.79
2023-02-15T04:05:54.414Z,2.74
2023-02-15T04:08:45.285Z,3.06
2023-02-15T04:11:13.425Z,2.95
2023-02-15T04:13:42.694Z,2.91
2023-02-15T04:16:10.869Z,2.90
2023-02-15T04:19:01.121Z,2.86
2023-02-15T04:21:49.829Z,2.87
2023-02-15T04:24:37.998Z,2.91
2023-02-15T04:27:07.857Z,2.83
2023-02-15T04:29:36.838Z,2.88
2023-02-15T04:32:06.493Z,2.89
2023-02-15T04:34:35.653Z,2.73
2023-02-15T04:37:04.852Z,2.69
2023-02-15T04:39:35.195Z,2.88
2023-02-15T04:42:04.240Z,2.71
2023-02-15T04:44:33.192Z,2.69
2023-02-15T04:47:02.309Z,2.43
2023-02-15T04:49:31.338Z,2.58
2023-02-15T04:52:00.496Z,2.60
2023-02-15T04:54:29.571Z,2.61
2023-02-15T04:56:59.866Z,2.36
2023-02-15T04:59:28.737Z,2.34
2023-02-15T05:01:57.872Z,2.42
2023-02-15T05:04:26.951Z,2.46
2023-02-15T05:06:55.983Z,2.43
2023-02-15T05:09:25.139Z,2.28
2023-02-15T05:11:54.485Z,2.38
2023-02-15T05:14:25.177Z,2.47
2023-02-15T05:16:55.371Z,2.17
2023-02-15T05:19:26.346Z,2.48
2023-02-15T05:21:55.600Z,2.29
2023-02-15T05:24:42.587Z,2.43
2023-02-15T05:27:31.166Z,2.48
2023-02-15T05:30:01.912Z,0.96
2023-02-15T05:32:31.756Z,0.41
2023-02-15T05:35:00.914Z,0.26
2023-02-15T05:37:29.758Z,0.32
2023-02-15T05:39:59.252Z,0.18
2023-02-15T05:42:28.562Z,0.11
2023-02-15T05:44:57.765Z,0.05
2023-02-15T05:47:28.720Z,0.00
2023-02-15T05:49:58.390Z,-0.10
2023-02-15T05:52:28.606Z,1.64
2023-02-15T05:54:59.248Z,1.94
2023-02-15T05:57:29.590Z,1.46
2023-02-15T05:59:59.961Z,0.59
2023-02-15T06:02:30.803Z,0.09
2023-02-15T06:05:00.319Z,0.30
2023-02-15T06:07:29.587Z,0.32
2023-02-15T06:09:59.012Z,0.04
2023-02-15T06:12:28.437Z,0.22
2023-02-15T06:14:57.591Z,0.01
2023-02-15T06:17:26.931Z,0.26
2023-02-15T06:19:57.520Z,-0.07
2023-02-15T06:22:26.612Z,0.12
2023-02-15T06:24:56.734Z,0.17
2023-02-15T06:27:26.014Z,0.13
2023-02-15T06:29:55.302Z,0.08
2023-02-15T06:32:24.810Z,-0.11
2023-02-15T06:34:54.128Z,-0.02
2023-02-15T06:37:25.697Z,-0.21
2023-02-15T06:39:55.124Z,0.08
2023-02-15T06:42:24.882Z,0.24
2023-02-15T06:44:54.197Z,0.11
2023-02-15T06:47:23.435Z,0.25
2023-02-15T06:49:52.577Z,0.18
2023-02-15T06:52:21.925Z,-0.06
2023-02-15T06:54:52.529Z,0.12
2023-02-15T06:57:21.733Z,0.16
2023-02-15T06:59:51.031Z,0.23
2023-02-15T07:02:20.187Z,0.24
2023-02-15T07:04:49.572Z,0.32
2023-02-15T07:07:19.220Z,-0.01
2023-02-15T07:09:48.529Z,0.06
2023-02-15T07:12:36.670Z,0.41
2023-02-15T07:15:07.842Z,0.35
2023-02-15T07:17:37.702Z,0.27
2023-02-15T07:20:09.439Z,0.15
2023-02-15T07:22:38.780Z,0.17
2023-02-15T07:25:10.530Z,-0.05
2023-02-15T07:27:42.006Z,0.14
2023-02-15T07:30:13.271Z,0.37
2023-02-15T07:33:16.823Z,0.22
2023-02-15T07:35:50.362Z,0.03
2023-02-15T07:38:19.814Z,0.39
2023-02-15T07:40:49.179Z,0.21
2023-02-15T07:43:19.880Z,0.26
2023-02-15T07:45:49.291Z,0.56
2023-02-15T07:48:18.672Z,0.32
2023-02-15T07:50:48.268Z,1.28
2023-02-15T07:53:17.792Z,2.11
2023-02-15T07:55:46.866Z,1.98
2023-02-15T07:58:16.265Z,2.08
2023-02-15T08:00:59.046Z,0.04
2023-02-15T08:03:30.401Z,1.91
2023-02-15T08:06:03.262Z,2.37
2023-02-15T08:08:36.638Z,0.73
2023-02-15T08:11:30.132Z,2.37
2023-02-15T08:14:06.187Z,2.25
2023-02-15T08:16:41.599Z,1.75
2023-02-15T08:19:16.187Z,1.94
2023-02-15T08:21:47.759Z,0.69
2023-02-15T08:24:19.514Z,2.85
2023-02-15T08:26:49.807Z,2.56
2023-02-15T08:29:22.371Z,2.52
2023-02-15T08:31:56.433Z,2.74
2023-02-15T08:34:25.501Z,2.88
2023-02-15T08:36:54.756Z,3.27
2023-02-15T08:39:24.354Z,3.31
2023-02-15T08:41:53.586Z,2.18
2023-02-15T08:44:23.687Z,2.51
2023-02-15T08:46:54.152Z,3.32
2023-02-15T08:49:25.220Z,3.22
2023-02-15T08:51:54.916Z,3.03
2023-02-15T08:54:23.981Z,3.41
2023-02-15T08:56:53.295Z,1.13
2023-02-15T08:59:24.154Z,0.82
2023-02-15T09:01:55.281Z,1.42
2023-02-15T09:04:24.466Z,1.38
2023-02-15T09:06:54.000Z,1.15
2023-02-15T09:09:23.874Z,2.88
2023-02-15T09:11:59.102Z,2.92
2023-02-15T09:14:29.160Z,2.93
2023-02-15T09:17:00.083Z,2.97
2023-02-15T09:19:29.171Z,3.03
2023-02-15T09:21:59.698Z,2.75
2023-02-15T09:24:28.895Z,3.62
2023-02-15T09:26:58.141Z,3.09
2023-02-15T09:29:27.694Z,3.20
2023-02-15T09:31:57.652Z,3.28
2023-02-15T09:34:28.481Z,2.95
2023-02-15T09:36:57.743Z,3.09
2023-02-15T09:39:29.064Z,3.07
2023-02-15T09:42:43.598Z,3.17
2023-02-15T09:45:36.539Z,3.36
2023-02-15T09:48:21.087Z,3.87
2023-02-15T09:51:04.637Z,3.80
2023-02-15T09:53:48.897Z,3.30
2023-02-15T09:56:21.991Z,3.38
2023-02-15T09:59:00.058Z,3.85
2023-02-15T10:01:40.674Z,3.53
2023-02-15T10:04:34.136Z,4.00
2023-02-15T10:07:14.649Z,3.91
2023-02-15T10:09:57.831Z,3.69
2023-02-15T10:12:44.391Z,3.23
2023-02-15T10:15:27.201Z,4.40
2023-02-15T10:18:14.014Z,4.56
2023-02-15T10:20:54.675Z,4.28
2023-02-15T10:23:39.615Z,4.05
2023-02-15T10:26:16.296Z,4.70
2023-02-15T10:28:50.460Z,3.78
2023-02-15T10:31:26.117Z,5.97
2023-02-15T10:34:10.125Z,8.94
2023-02-15T10:36:55.411Z,9.14
2023-02-15T10:39:31.764Z,10.99
2023-02-15T10:42:11.986Z,9.93
2023-02-15T10:44:55.004Z,12.15
2023-02-15T10:47:55.171Z,11.56
2023-02-15T10:50:32.300Z,13.17
2023-02-15T10:53:13.761Z,14.52
2023-02-15T10:55:53.085Z,14.84
2023-02-15T10:58:37.175Z,15.88
2023-02-15T11:01:10.248Z,16.04
2023-02-15T11:03:54.294Z,15.69
2023-02-15T11:06:29.538Z,14.49
2023-02-15T11:09:03.576Z,13.92
2023-02-15T11:11:40.404Z,15.84
2023-02-15T11:14:16.849Z,15.94
2023-02-15T11:16:49.047Z,15.67
2023-02-15T11:19:24.740Z,17.04
2023-02-15T11:21:59.903Z,15.92
2023-02-15T11:24:32.226Z,15.18
2023-02-15T11:27:08.133Z,15.47
2023-02-15T11:29:43.332Z,16.75
2023-02-15T11:32:26.103Z,19.48
2023-02-15T11:35:00.715Z,18.20
2023-02-15T11:37:38.269Z,19.97
2023-02-15T11:40:21.716Z,19.45
2023-02-15T11:42:56.922Z,17.93
2023-02-15T11:45:31.038Z,18.81
2023-02-15T11:48:02.010Z,20.63
2023-02-15T11:50:34.644Z,19.46
2023-02-15T11:53:06.506Z,17.70
2023-02-15T11:55:36.196Z,19.31
2023-02-15T11:58:25.677Z,21.38
2023-02-15T12:01:00.868Z,18.01
2023-02-15T12:03:42.147Z,18.18
2023-02-15T12:06:26.665Z,18.35
2023-02-15T12:09:04.375Z,20.03
2023-02-15T12:11:39.234Z,18.41
2023-02-15T12:14:16.813Z,19.62
2023-02-15T12:16:48.110Z,20.75
2023-02-15T12:19:33.432Z,21.66
2023-02-15T12:22:06.455Z,22.32
2023-02-15T12:24:41.152Z,20.61
2023-02-15T12:27:18.185Z,20.88
2023-02-15T12:29:53.091Z,15.96
2023-02-15T12:32:27.317Z,19.15
2023-02-15T12:35:02.326Z,21.76
2023-02-15T12:37:35.826Z,19.75
2023-02-15T12:40:22.374Z,19.17
2023-02-15T12:42:51.806Z,21.25
2023-02-15T12:45:32.661Z,20.01
2023-02-15T12:48:16.950Z,20.77
2023-02-15T12:50:55.025Z,21.73
2023-02-15T12:53:34.835Z,19.33
2023-02-15T12:56:06.195Z,17.17
2023-02-15T12:58:37.072Z,21.15
2023-02-15T13:01:14.169Z,18.52
2023-02-15T13:03:59.218Z,18.01
2023-02-15T13:06:30.553Z,17.66
2023-02-15T13:09:07.815Z,18.36
2023-02-15T13:11:38.614Z,21.12
2023-02-15T13:14:20.687Z,19.72
2023-02-15T13:16:54.376Z,17.91
2023-02-15T13:19:31.897Z,20.39
2023-02-15T13:22:08.049Z,21.19
2023-02-15T13:24:41.430Z,19.93
2023-02-15T13:27:16.221Z,21.29
2023-02-15T13:29:50.696Z,18.84
2023-02-15T13:32:29.903Z,18.93
2023-02-15T13:35:01.625Z,11.26
2023-02-15T13:37:56.669Z,9.49
2023-02-15T13:40:32.229Z,8.42
2023-02-15T13:43:08.052Z,8.15
2023-02-15T13:45:47.559Z,10.36
2023-02-15T13:48:36.911Z,11.39
2023-02-15T13:51:22.356Z,12.63
2023-02-15T13:54:11.298Z,13.09
2023-02-15T13:56:55.951Z,11.09
2023-02-15T13:59:49.381Z,10.35
2023-02-15T14:02:45.742Z,8.85
2023-02-15T14:05:31.894Z,8.62
2023-02-15T14:08:13.729Z,8.95
2023-02-15T14:11:00.368Z,9.28
2023-02-15T14:13:57.966Z,8.81
2023-02-15T14:16:39.551Z,7.67
2023-02-15T14:19:19.251Z,7.94
2023-02-15T14:21:58.112Z,7.36
2023-02-15T14:24:38.754Z,6.37
2023-02-15T14:27:19.682Z,5.52
2023-02-15T14:29:53.634Z,6.34
2023-02-15T14:32:30.211Z,5.67
2023-02-15T14:35:01.909Z,5.81
2023-02-15T14:37:44.174Z,6.33
2023-02-15T14:40:39.233Z,6.05
2023-02-15T14:43:14.118Z,5.94
2023-02-15T14:45:54.795Z,5.89
2023-02-15T14:48:32.274Z,6.10
2023-02-15T14:51:03.053Z,5.77
2023-02-15T14:53:39.465Z,5.85
2023-02-15T14:56:22.670Z,4.94
2023-02-15T14:59:00.921Z,5.75
2023-02-15T15:01:33.121Z,5.40
2023-02-15T15:04:07.039Z,5.50
2023-02-15T15:06:37.127Z,5.37
2023-02-15T15:09:17.568Z,5.68
2023-02-15T15:11:48.959Z,5.27
2023-02-15T15:14:41.521Z,5.14
2023-02-15T15:17:14.266Z,5.19
2023-02-15T15:20:14.682Z,4.71
2023-02-15T15:22:47.446Z,5.19
2023-02-15T15:25:49.072Z,5.00
2023-02-15T15:28:57.281Z,4.79
2023-02-15T15:31:34.395Z,4.62
2023-02-15T15:34:39.289Z,5.33
2023-02-15T15:37:45.781Z,5.22
2023-02-15T15:40:44.453Z,5.05
2023-02-15T15:43:39.986Z,5.05
2023-02-15T15:46:26.308Z,5.03
2023-02-15T15:48:56.229Z,5.10
2023-02-15T15:51:32.102Z,4.97
2023-02-15T15:54:04.117Z,4.99
2023-02-15T15:56:36.145Z,5.04
2023-02-15T15:59:10.077Z,4.78
2023-02-15T16:01:43.953Z,4.79
2023-02-15T16:04:16.703Z,4.96
2023-02-15T16:06:47.140Z,4.83
2023-02-15T16:09:20.725Z,4.75
2023-02-15T16:11:52.695Z,5.14
2023-02-15T16:14:31.162Z,4.15
2023-02-15T16:17:04.360Z,4.52
2023-02-15T16:19:38.116Z,4.59
2023-02-15T16:22:14.680Z,4.95
2023-02-15T16:25:06.932Z,4.79
2023-02-15T16:27:38.651Z,4.83
2023-02-15T16:30:29.122Z,4.82
2023-02-15T16:33:07.698Z,4.76
2023-02-15T16:35:38.985Z,4.43
2023-02-15T16:38:11.557Z,4.83
2023-02-15T16:40:53.741Z,4.75
2023-02-15T16:43:28.411Z,4.77
2023-02-15T16:46:06.920Z,4.85
2023-02-15T16:48:44.336Z,4.52
2023-02-15T16:51:23.034Z,4.97
2023-02-15T16:53:54.003Z,4.74
2023-02-15T16:56:26.349Z,4.95
2023-02-15T16:58:58.983Z,4.82
2023-02-15T17:01:33.035Z,5.24
2023-02-15T17:04:26.308Z,4.70
2023-02-15T17:07:02.010Z,4.87
2023-02-15T17:09:31.781Z,5.25
2023-02-15T17:12:03.147Z,5.15
2023-02-15T17:14:34.468Z,5.47
2023-02-15T17:17:13.460Z,5.32
2023-02-15T17:19:50.090Z,5.22
2023-02-15T17:22:23.456Z,5.38
2023-02-15T17:25:00.790Z,5.31
2023-02-15T17:27:36.535Z,5.06
2023-02-15T17:30:15.804Z,4.41
2023-02-15T17:32:58.039Z,5.20
2023-02-15T17:35:29.315Z,5.32
2023-02-15T17:38:08.456Z,5.09
2023-02-15T17:40:39.194Z,5.12
2023-02-15T17:43:08.814Z,4.82
2023-02-15T17:45:45.987Z,4.98
2023-02-15T17:48:23.029Z,4.45
2023-02-15T17:50:53.138Z,4.55
2023-02-15T17:53:22.680Z,4.60
2023-02-15T17:55:51.171Z,4.54
2023-02-15T17:58:22.513Z,4.40
2023-02-15T18:01:11.937Z,4.56
2023-02-15T18:04:04.184Z,4.34
2023-02-15T18:06:52.261Z,4.27
2023-02-15T18:09:41.033Z,4.17
2023-02-15T18:12:21.803Z,4.25
2023-02-15T18:14:52.242Z,4.14
2023-02-15T18:17:32.071Z,4.12
2023-02-15T18:20:05.753Z,3.98
2023-02-15T18:22:36.784Z,4.22
2023-02-15T18:25:07.686Z,4.03
2023-02-15T18:27:38.765Z,4.01
2023-02-15T18:30:09.818Z,3.96
2023-02-15T18:32:41.367Z,4.16
2023-02-15T18:35:16.764Z,4.03
2023-02-15T18:37:47.982Z,3.82
2023-02-15T18:40:18.168Z,3.79
2023-02-15T18:42:49.148Z,3.86
2023-02-15T18:45:22.563Z,3.37
2023-02-15T18:47:52.296Z,3.77
2023-02-15T18:50:25.242Z,3.93
2023-02-15T18:52:55.084Z,3.98
2023-02-15T18:55:28.146Z,3.93
2023-02-15T18:57:58.363Z,3.97
2023-02-15T19:00:30.044Z,3.85
2023-02-15T19:03:01.755Z,3.83
2023-02-15T19:05:34.437Z,4.00
2023-02-15T19:08:04.786Z,3.67
2023-02-15T19:10:35.041Z,4.03
2023-02-15T19:13:04.761Z,4.02
2023-02-15T19:15:34.488Z,3.71
2023-02-15T19:18:04.138Z,3.71
2023-02-15T19:20:39.947Z,3.71
2023-02-15T19:23:17.931Z,3.71
2023-02-15T19:25:49.198Z,3.71
2023-02-15T19:28:21.174Z,3.87
2023-02-15T19:30:51.441Z,3.69
2023-02-15T19:33:24.077Z,3.88
2023-02-15T19:35:57.641Z,3.54
2023-02-15T19:38:30.532Z,3.73
2023-02-15T19:41:05.057Z,3.86
2023-02-15T19:43:36.180Z,3.79
2023-02-15T19:46:06.396Z,3.86
2023-02-15T19:48:36.756Z,3.85
2023-02-15T19:51:07.448Z,3.85
2023-02-15T19:53:36.821Z,3.89
2023-02-15T19:56:06.609Z,3.16
2023-02-15T19:58:36.136Z,3.33
2023-02-15T20:01:05.958Z,3.60
2023-02-15T20:03:36.118Z,3.54
2023-02-15T20:06:07.392Z,3.54
2023-02-15T20:08:37.443Z,3.85
2023-02-15T20:11:10.901Z,3.39
2023-02-15T20:13:40.868Z,3.63
2023-02-15T20:16:10.398Z,3.45
2023-02-15T20:18:44.937Z,3.63
2023-02-15T20:21:18.606Z,3.57
2023-02-15T20:23:48.254Z,3.52
2023-02-15T20:26:19.704Z,3.61
2023-02-15T20:28:49.330Z,3.51
2023-02-15T20:31:21.840Z,3.46
2023-02-15T20:33:51.667Z,3.56
2023-02-15T20:36:25.023Z,3.53
2023-02-15T20:38:57.537Z,3.55
2023-02-15T20:41:40.162Z,3.41
2023-02-15T20:44:29.306Z,3.50
2023-02-15T20:47:01.792Z,3.37
2023-02-15T20:49:31.409Z,3.55
2023-02-15T20:52:04.771Z,3.39
2023-02-15T20:54:37.403Z,3.26
2023-02-15T20:57:07.324Z,3.07
2023-02-15T20:59:37.309Z,3.07
2023-02-15T21:02:18.611Z,3.02
2023-02-15T21:04:48.535Z,3.54
2023-02-15T21:07:22.382Z,2.35
2023-02-15T21:09:52.876Z,3.47
2023-02-15T21:12:23.705Z,3.35
2023-02-15T21:14:53.092Z,3.52
2023-02-15T21:17:22.518Z,3.40
2023-02-15T21:19:52.402Z,3.40
2023-02-15T21:22:23.904Z,3.39
2023-02-15T21:24:55.065Z,3.08
2023-02-15T21:27:24.659Z,3.25
2023-02-15T21:29:54.027Z,3.33
2023-02-15T21:32:23.401Z,3.52
2023-02-15T21:34:53.102Z,3.38
2023-02-15T21:37:33.686Z,3.50
2023-02-15T21:40:05.888Z,3.36
2023-02-15T21:42:51.948Z,3.36
2023-02-15T21:45:38.752Z,3.48
2023-02-15T21:48:08.034Z,3.49
2023-02-15T21:50:55.490Z,3.42
2023-02-15T21:53:29.299Z,3.30
2023-02-15T21:56:00.331Z,3.29
2023-02-15T21:58:32.311Z,3.53
2023-02-15T22:01:03.543Z,3.46
2023-02-15T22:03:35.249Z,3.12
2023-02-15T22:06:06.191Z,3.56
2023-02-15T22:08:36.976Z,3.40
2023-02-15T22:11:12.868Z,3.32
2023-02-15T22:13:42.984Z,3.47
2023-02-15T22:16:17.100Z,3.28
2023-02-15T22:18:47.093Z,3.27
2023-02-15T22:21:18.188Z,3.35
2023-02-15T22:23:48.941Z,3.28
2023-02-15T22:26:25.100Z,3.40
2023-02-15T22:28:54.524Z,3.21
2023-02-15T22:31:24.679Z,2.73
2023-02-15T22:33:55.412Z,3.15
2023-02-15T22:36:26.561Z,3.41
2023-02-15T22:38:58.308Z,3.55
2023-02-15T22:41:31.749Z,2.57
2023-02-15T22:44:01.136Z,3.17
2023-02-15T22:46:30.514Z,3.24
2023-02-15T22:48:59.514Z,3.38
2023-02-15T22:51:28.952Z,3.41
2023-02-15T22:53:59.836Z,3.30
2023-02-15T22:56:40.048Z,3.19
2023-02-15T22:59:17.725Z,3.25
2023-02-15T23:01:47.652Z,2.91
2023-02-15T23:04:19.940Z,2.89
2023-02-15T23:06:49.954Z,3.21
2023-02-15T23:09:21.459Z,3.10
2023-02-15T23:11:52.443Z,3.13
2023-02-15T23:14:27.554Z,3.15
2023-02-15T23:16:56.920Z,3.00
2023-02-15T23:19:26.213Z,3.08
2023-02-15T23:21:55.693Z,3.33
2023-02-15T23:24:29.695Z,3.04
2023-02-15T23:27:19.921Z,3.19
2023-02-15T23:29:49.304Z,3.06
2023-02-15T23:32:20.483Z,3.11
2023-02-15T23:34:50.241Z,3.25
2023-02-15T23:37:19.640Z,3.36
2023-02-15T23:40:07.722Z,2.96
2023-02-15T23:42:37.032Z,3.13
2023-02-15T23:45:19.594Z,3.32
2023-02-15T23:48:05.929Z,3.42
2023-02-15T23:50:35.706Z,3.04
2023-02-15T23:53:05.263Z,2.98
2023-02-15T23:55:38.471Z,3.16
2023-02-15T23:58:13.103Z,3.23
